createdAt,value
2024-05-09T00:00:22.043Z,7.47
2024-05-09T00:05:31.657Z,7.33
2024-05-09T00:10:38.935Z,7.80
2024-05-09T00:15:47.689Z,7.20
2024-05-09T00:20:52.857Z,7.10
2024-05-09T00:25:58.124Z,7.30
2024-05-09T00:31:05.998Z,6.95
2024-05-09T00:36:11.191Z,6.95
2024-05-09T00:41:19.014Z,7.63
2024-05-09T00:46:27.643Z,7.05
2024-05-09T00:51:32.766Z,7.70
2024-05-09T00:56:38.275Z,8.15
2024-05-09T01:01:48.377Z,7.93
2024-05-09T01:06:53.643Z,6.70
2024-05-09T01:11:58.860Z,8.13
2024-05-09T01:17:07.353Z,8.90
2024-05-09T01:22:12.551Z,7.55
2024-05-09T01:27:21.174Z,7.28
2024-05-09T01:32:26.479Z,8.65
2024-05-09T01:37:31.733Z,8.43
2024-05-09T01:42:39.483Z,8.55
2024-05-09T01:47:44.823Z,8.00
2024-05-09T01:52:50.094Z,7.85
2024-05-09T01:57:57.887Z,7.90
2024-05-09T02:03:03.306Z,7.72
2024-05-09T02:08:09.628Z,8.32
2024-05-09T02:13:18.108Z,8.52
2024-05-09T02:18:23.771Z,8.20
2024-05-09T02:23:29.154Z,7.30
2024-05-09T02:28:37.084Z,7.68
2024-05-09T02:33:42.372Z,7.45
2024-05-09T02:38:47.784Z,7.07
2024-05-09T02:43:55.633Z,8.00
2024-05-09T02:49:00.886Z,7.57
2024-05-09T02:54:07.712Z,8.13
2024-05-09T02:59:16.022Z,9.50
2024-05-09T03:04:21.531Z,7.65
2024-05-09T03:09:26.939Z,7.80
2024-05-09T03:14:34.725Z,8.27
2024-05-09T03:19:40.144Z,10.10
2024-05-09T03:24:45.322Z,9.57
2024-05-09T03:29:53.316Z,9.13
2024-05-09T03:34:58.499Z,8.50
2024-05-09T03:40:05.584Z,8.65
2024-05-09T03:45:14.952Z,9.18
2024-05-09T03:50:26.325Z,9.02
2024-05-09T03:55:38.970Z,9.57
2024-05-09T04:00:46.793Z,8.50
2024-05-09T04:05:52.043Z,8.20
2024-05-09T04:10:57.214Z,7.32
2024-05-09T04:16:05.033Z,8.10
2024-05-09T04:21:10.400Z,8.52
2024-05-09T04:26:15.777Z,7.90
2024-05-09T04:31:23.668Z,9.52
2024-05-09T04:36:28.763Z,9.00
2024-05-09T04:41:34.005Z,8.70
2024-05-09T04:46:42.200Z,9.70
2024-05-09T04:51:47.358Z,9.02
2024-05-09T04:56:52.618Z,9.18
2024-05-09T05:02:00.554Z,9.10
2024-05-09T05:07:05.914Z,9.20
2024-05-09T05:12:31.632Z,9.48
2024-05-09T05:17:39.621Z,9.93
2024-05-09T05:22:44.929Z,9.07
2024-05-09T05:27:50.176Z,10.98
2024-05-09T05:32:58.003Z,11.45
2024-05-09T05:38:04.004Z,12.88
2024-05-09T05:43:10.773Z,14.13
2024-05-09T05:48:19.326Z,11.77
2024-05-09T05:53:24.839Z,12.02
2024-05-09T05:58:30.126Z,11.40
2024-05-09T06:03:38.459Z,12.93
2024-05-09T06:08:44.187Z,12.57
2024-05-09T06:13:49.445Z,12.35
2024-05-09T06:18:57.417Z,12.25
2024-05-09T06:24:06.541Z,11.90
2024-05-09T06:29:12.484Z,11.10
2024-05-09T06:34:21.754Z,11.25
2024-05-09T06:39:27.181Z,10.47
2024-05-09T06:44:32.672Z,11.30
2024-05-09T06:49:41.426Z,10.18
2024-05-09T06:54:46.561Z,10.52
2024-05-09T06:59:51.740Z,10.57
2024-05-09T07:04:59.560Z,10.88
2024-05-09T07:10:06.281Z,10.40
2024-05-09T07:15:13.394Z,7.13
2024-05-09T07:20:31.676Z,7.15
2024-05-09T07:25:39.838Z,6.70
2024-05-09T07:30:45.179Z,7.15
2024-05-09T07:35:53.167Z,6.25
2024-05-09T07:40:58.526Z,5.72
2024-05-09T07:47:03.854Z,5.47
2024-05-09T07:53:08.269Z,4.88
2024-05-09T07:56:57.560Z,5.43
2024-05-09T08:02:03.029Z,5.47
2024-05-09T08:07:11.174Z,4.85
2024-05-09T08:12:16.605Z,5.07
2024-05-09T08:17:21.823Z,6.18
2024-05-09T08:22:32.165Z,5.95
2024-05-09T08:27:37.390Z,4.80
2024-05-09T08:32:43.127Z,5.93
2024-05-09T08:37:53.537Z,5.32
2024-05-09T08:43:00.712Z,4.90
2024-05-09T08:48:07.795Z,4.35
2024-05-09T08:53:15.857Z,4.30
2024-05-09T08:58:21.768Z,4.40
2024-05-09T09:03:30.413Z,4.45
2024-05-09T09:08:41.569Z,4.07
2024-05-09T09:13:46.699Z,4.05
2024-05-09T09:18:52.134Z,4.10
2024-05-09T09:24:00.534Z,4.47
2024-05-09T09:29:05.722Z,4.38
2024-05-09T09:34:11.490Z,4.68
2024-05-09T09:39:23.163Z,4.20
2024-05-09T09:44:28.526Z,4.20
2024-05-09T09:49:36.780Z,3.80
2024-05-09T09:54:46.670Z,4.25
2024-05-09T09:59:53.121Z,3.40
2024-05-09T10:04:59.117Z,3.75
2024-05-09T10:10:10.982Z,3.42
2024-05-09T10:15:22.451Z,3.75
2024-05-09T10:20:30.932Z,2.85
2024-05-09T10:25:40.462Z,2.45
2024-05-09T10:30:50.351Z,2.65
2024-05-09T10:35:55.659Z,2.90
2024-05-09T10:41:03.701Z,2.78
2024-05-09T10:46:09.395Z,2.60
2024-05-09T10:51:16.207Z,2.33
2024-05-09T10:56:23.977Z,1.98
2024-05-09T11:01:29.678Z,1.77
2024-05-09T11:06:38.140Z,1.70
2024-05-09T11:11:46.201Z,1.90
2024-05-09T11:17:01.430Z,2.10
2024-05-09T11:22:07.260Z,2.22
2024-05-09T11:27:15.432Z,2.15
2024-05-09T11:32:32.709Z,1.90
2024-05-09T11:37:40.812Z,1.80
2024-05-09T11:42:51.505Z,2.15
2024-05-09T11:47:58.327Z,1.85
2024-05-09T11:53:03.628Z,1.67
2024-05-09T11:58:12.441Z,1.33
2024-05-09T12:03:17.790Z,1.58
2024-05-09T12:08:23.022Z,2.22
2024-05-09T12:13:30.883Z,2.17
2024-05-09T12:18:36.544Z,1.80
2024-05-09T12:23:41.773Z,1.75
2024-05-09T12:28:49.533Z,2.17
2024-05-09T12:33:54.843Z,1.70
2024-05-09T12:39:00.097Z,1.80
2024-05-09T12:44:08.257Z,2.10
2024-05-09T12:49:16.392Z,1.17
2024-05-09T12:54:22.454Z,2.05
2024-05-09T12:59:30.296Z,2.10
2024-05-09T13:04:35.635Z,1.98
2024-05-09T13:09:41.072Z,1.95
2024-05-09T13:14:48.830Z,1.90
2024-05-09T13:19:54.073Z,1.80
2024-05-09T13:24:59.390Z,2.03
2024-05-09T13:30:12.003Z,1.70
2024-05-09T13:35:22.976Z,1.42
2024-05-09T13:40:33.586Z,1.70
2024-05-09T13:45:43.722Z,1.50
2024-05-09T13:50:48.921Z,1.42
2024-05-09T13:55:54.236Z,1.70
2024-05-09T14:01:02.313Z,1.55
2024-05-09T14:06:12.080Z,1.52
2024-05-09T14:11:18.309Z,1.95
2024-05-09T14:16:26.360Z,1.83
2024-05-09T14:21:31.720Z,1.80
2024-05-09T14:26:36.918Z,2.03
2024-05-09T14:31:44.760Z,2.00
2024-05-09T14:36:50.024Z,1.70
2024-05-09T14:41:55.331Z,1.55
2024-05-09T14:47:03.193Z,1.80
2024-05-09T14:52:09.531Z,1.55
2024-05-09T14:57:14.714Z,1.63
2024-05-09T15:02:22.636Z,1.55
2024-05-09T15:07:28.082Z,1.83
2024-05-09T15:12:33.315Z,1.85
2024-05-09T15:17:41.658Z,1.52
2024-05-09T15:22:46.843Z,1.60
2024-05-09T15:27:52.147Z,1.40
2024-05-09T15:33:00.673Z,1.27
2024-05-09T15:38:09.612Z,1.50
2024-05-09T15:43:15.035Z,1.58
2024-05-09T15:48:23.079Z,1.55
2024-05-09T15:53:29.136Z,1.50
2024-05-09T15:58:34.332Z,1.58
2024-05-09T16:03:42.274Z,1.35
2024-05-09T16:08:47.662Z,1.50
2024-05-09T16:13:52.798Z,1.25
2024-05-09T16:19:00.674Z,1.75
2024-05-09T16:24:06.057Z,1.77
2024-05-09T16:29:11.423Z,1.27
2024-05-09T16:34:19.316Z,1.45
2024-05-09T16:39:24.453Z,2.10
2024-05-09T16:44:31.019Z,1.55
2024-05-09T16:49:39.726Z,1.60
2024-05-09T16:54:44.966Z,2.08
2024-05-09T16:59:50.222Z,1.83
2024-05-09T17:04:58.165Z,1.38
2024-05-09T17:10:03.984Z,2.30
2024-05-09T17:15:10.308Z,1.40
2024-05-09T17:20:28.898Z,1.35
2024-05-09T17:25:38.606Z,1.58
2024-05-09T17:30:44.339Z,1.50
2024-05-09T17:35:52.840Z,2.00
2024-05-09T17:40:58.208Z,1.95
2024-05-09T17:46:03.455Z,1.50
2024-05-09T17:51:11.386Z,1.77
2024-05-09T17:56:17.496Z,1.52
2024-05-09T18:01:24.082Z,1.83
2024-05-09T18:06:31.849Z,2.00
2024-05-09T18:11:37.089Z,1.80
2024-05-09T18:16:42.271Z,1.45
2024-05-09T18:21:51.758Z,1.60
2024-05-09T18:26:56.964Z,1.58
2024-05-09T18:32:02.154Z,1.80
2024-05-09T18:37:10.158Z,1.65
2024-05-09T18:42:15.446Z,1.70
2024-05-09T18:47:20.975Z,2.20
2024-05-09T18:52:28.907Z,1.92
2024-05-09T18:57:34.779Z,2.03
2024-05-09T19:02:40.216Z,1.90
2024-05-09T19:07:48.192Z,1.95
2024-05-09T19:12:53.441Z,1.77
2024-05-09T19:17:58.779Z,2.35
2024-05-09T19:23:07.654Z,1.85
2024-05-09T19:28:12.980Z,1.83
2024-05-09T19:33:18.500Z,2.30
2024-05-09T19:38:26.392Z,1.90
2024-05-09T19:43:33.806Z,2.13
2024-05-09T19:48:40.684Z,2.67
2024-05-09T19:53:50.632Z,2.78
2024-05-09T19:58:55.797Z,2.30
2024-05-09T20:04:01.115Z,2.72
2024-05-09T20:09:09.165Z,2.40
2024-05-09T20:14:14.860Z,2.10
2024-05-09T20:19:20.204Z,2.38
2024-05-09T20:24:28.041Z,2.10
2024-05-09T20:29:34.231Z,2.38
2024-05-09T20:34:39.591Z,1.83
2024-05-09T20:39:47.544Z,2.10
2024-05-09T20:44:52.697Z,2.35
2024-05-09T20:49:57.941Z,2.25
2024-05-09T20:55:05.831Z,2.50
2024-05-09T21:00:18.366Z,2.50
2024-05-09T21:05:24.568Z,2.50
2024-05-09T21:10:33.960Z,2.92
2024-05-09T21:15:39.818Z,2.47
2024-05-09T21:20:45.241Z,2.35
2024-05-09T21:25:53.035Z,2.90
2024-05-09T21:30:58.557Z,2.97
2024-05-09T21:36:03.683Z,3.00
2024-05-09T21:41:12.636Z,2.58
2024-05-09T21:46:17.772Z,2.40
2024-05-09T21:51:22.911Z,2.45
2024-05-09T21:56:30.821Z,2.42
2024-05-09T22:01:36.201Z,3.00
2024-05-09T22:06:41.516Z,3.03
2024-05-09T22:11:52.034Z,3.08
2024-05-09T22:16:58.074Z,2.85
2024-05-09T22:22:03.282Z,3.00
2024-05-09T22:27:11.965Z,3.28
2024-05-09T22:32:17.266Z,3.25
2024-05-09T22:37:22.477Z,3.13
2024-05-09T22:42:30.263Z,3.30
2024-05-09T22:47:35.648Z,3.08
2024-05-09T22:52:40.919Z,3.38
2024-05-09T22:57:48.776Z,3.33
2024-05-09T23:02:57.128Z,3.97
2024-05-09T23:08:03.423Z,3.67
2024-05-09T23:13:11.269Z,4.60
2024-05-09T23:18:16.563Z,4.90
2024-05-09T23:23:22.085Z,3.65
2024-05-09T23:28:30.413Z,3.22
2024-05-09T23:33:35.875Z,3.55
2024-05-09T23:38:41.827Z,3.63
2024-05-09T23:43:49.608Z,3.47
2024-05-09T23:48:54.832Z,3.13
2024-05-09T23:54:00.088Z,3.85
2024-05-09T23:59:08.634Z,3.58
